createdAt,value
2023-02-02T00:03:45.210Z,17.8
2023-02-02T00:08:45.371Z,17.9
2023-02-02T00:13:45.493Z,17.8
2023-02-02T00:18:45.644Z,17.9
2023-02-02T00:23:48.729Z,17.9
2023-02-02T00:28:48.589Z,17.9
2023-02-02T00:33:48.475Z,17.8
2023-02-02T00:38:48.662Z,17.8
2023-02-02T00:43:48.949Z,17.8
2023-02-02T00:48:49.118Z,17.8
2023-02-02T00:53:49.344Z,17.6
2023-02-02T00:58:49.384Z,17.7
2023-02-02T01:03:49.542Z,17.8
2023-02-02T01:08:49.753Z,17.7
2023-02-02T01:13:49.986Z,17.6
2023-02-02T01:18:50.182Z,17.7
2023-02-02T01:23:50.300Z,17.7
2023-02-02T01:28:50.433Z,17.7
2023-02-02T01:33:50.547Z,17.6
2023-02-02T01:38:50.978Z,17.8
2023-02-02T01:43:51.321Z,17.7
2023-02-02T01:48:51.371Z,17.7
2023-02-02T01:53:51.853Z,17.6
2023-02-02T01:58:51.883Z,17.7
2023-02-02T02:03:52.272Z,17.7
2023-02-02T02:08:52.504Z,17.7
2023-02-02T02:13:52.726Z,17.7
2023-02-02T02:18:53.885Z,17.7
2023-02-02T02:23:53.948Z,17.6
2023-02-02T02:28:54.241Z,17.7
2023-02-02T02:33:54.254Z,17.6
2023-02-02T02:38:54.454Z,17.7
2023-02-02T02:43:54.757Z,17.7
2023-02-02T02:48:54.503Z,17.7
2023-02-02T02:53:54.656Z,17.7
2023-02-02T02:58:58.492Z,17.7
2023-02-02T03:03:58.232Z,17.6
2023-02-02T03:08:58.361Z,17.7
2023-02-02T03:14:01.685Z,17.7
2023-02-02T03:19:01.525Z,17.6
2023-02-02T03:24:01.890Z,17.7
2023-02-02T03:29:02.114Z,17.7
2023-02-02T03:34:02.579Z,17.6
2023-02-02T03:39:02.790Z,17.7
2023-02-02T03:44:03.031Z,17.7
2023-02-02T03:49:03.309Z,17.6
2023-02-02T03:54:03.442Z,17.6
2023-02-02T03:59:03.689Z,17.7
2023-02-02T04:04:05.815Z,17.7
2023-02-02T04:09:05.768Z,17.7
2023-02-02T04:14:06.147Z,17.7
2023-02-02T04:19:06.603Z,17.6
2023-02-02T04:24:07.049Z,17.7
2023-02-02T04:29:06.998Z,17.7
2023-02-02T04:34:08.066Z,17.6
2023-02-02T04:39:08.001Z,17.7
2023-02-02T04:44:08.475Z,17.8
2023-02-02T04:49:08.447Z,17.7
2023-02-02T04:54:08.487Z,17.6
2023-02-02T04:59:08.792Z,17.7
2023-02-02T05:04:09.195Z,17.6
2023-02-02T05:09:09.219Z,17.7
2023-02-02T05:14:09.466Z,17.6
2023-02-02T05:19:09.859Z,17.5
2023-02-02T05:24:10.187Z,17.7
2023-02-02T05:29:10.440Z,17.6
2023-02-02T05:34:10.726Z,17.6
2023-02-02T05:39:11.054Z,17.6
2023-02-02T05:44:11.518Z,17.6
2023-02-02T05:49:11.652Z,17.6
2023-02-02T05:54:11.976Z,17.5
2023-02-02T05:59:12.347Z,17.5
2023-02-02T06:04:12.613Z,17.6
2023-02-02T06:09:12.932Z,17.6
2023-02-02T06:14:14.956Z,17.6
2023-02-02T06:19:17.996Z,17.7
2023-02-02T06:24:17.733Z,17.7
2023-02-02T06:29:17.834Z,17.6
2023-02-02T06:34:18.008Z,17.6
2023-02-02T06:39:18.321Z,17.3
2023-02-02T06:44:18.772Z,17.6
2023-02-02T06:49:19.174Z,17.6
2023-02-02T06:54:19.590Z,17.6
2023-02-02T06:59:19.898Z,17.6
2023-02-02T07:04:19.835Z,17.4
2023-02-02T07:09:19.980Z,17.5
2023-02-02T07:14:20.081Z,17.5
2023-02-02T07:19:20.145Z,17.5
2023-02-02T07:24:20.368Z,17.5
2023-02-02T07:29:20.526Z,17.5
2023-02-02T07:34:20.965Z,17.5
2023-02-02T07:39:20.893Z,17.5
2023-02-02T07:44:21.218Z,17.5
2023-02-02T07:49:22.096Z,17.5
2023-02-02T07:54:21.973Z,17.5
2023-02-02T07:59:22.341Z,17.6
2023-02-02T08:04:21.516Z,17.6
2023-02-02T08:09:21.950Z,17.6
2023-02-02T08:14:22.044Z,17.6
2023-02-02T08:19:23.122Z,17.7
2023-02-02T08:24:23.178Z,17.7
2023-02-02T08:29:23.379Z,17.7
2023-02-02T08:34:23.382Z,17.7
2023-02-02T08:39:23.862Z,17.7
2023-02-02T08:44:24.231Z,17.7
2023-02-02T08:49:24.448Z,17.7
2023-02-02T08:54:24.724Z,17.5
2023-02-02T08:59:25.027Z,17.6
2023-02-02T09:04:25.232Z,17.6
2023-02-02T09:09:25.423Z,17.5
2023-02-02T09:14:25.662Z,17.5
2023-02-02T09:19:28.624Z,17.7
2023-02-02T09:24:28.478Z,17.7
2023-02-02T09:29:28.609Z,17.8
2023-02-02T09:34:29.038Z,17.6
2023-02-02T09:39:29.019Z,17.9
2023-02-02T09:44:31.824Z,17.7
2023-02-02T09:49:31.591Z,17.8
2023-02-02T09:54:34.614Z,17.8
2023-02-02T09:59:34.336Z,17.9
2023-02-02T10:04:34.415Z,17.9
2023-02-02T10:09:34.650Z,17.8
2023-02-02T10:14:35.032Z,17.9
2023-02-02T10:19:35.393Z,17.8
2023-02-02T10:24:35.542Z,17.9
2023-02-02T10:29:48.333Z,17.8
2023-02-02T10:34:36.022Z,17.9
2023-02-02T10:39:36.153Z,18.1
2023-02-02T10:44:36.363Z,18
2023-02-02T10:49:39.391Z,18
2023-02-02T10:54:55.208Z,18
2023-02-02T10:59:41.733Z,17.9
2023-02-02T11:04:42.128Z,18.2
2023-02-02T11:09:43.382Z,18.2
2023-02-02T11:14:45.361Z,18.3
2023-02-02T11:19:43.407Z,18.4
2023-02-02T11:24:43.449Z,18.4
2023-02-02T11:29:46.478Z,18.4
2023-02-02T11:34:46.412Z,18.4
2023-02-02T11:39:46.513Z,18.5
2023-02-02T11:44:46.892Z,18.6
2023-02-02T11:49:47.260Z,18.6
2023-02-02T11:54:47.436Z,18.6
2023-02-02T11:59:47.737Z,18.7
2023-02-02T12:04:48.087Z,18.7
2023-02-02T12:09:48.203Z,18.7
2023-02-02T12:14:48.624Z,18.8
2023-02-02T12:19:48.886Z,18.8
2023-02-02T12:24:48.866Z,18.7
2023-02-02T12:29:48.955Z,18.8
2023-02-02T12:34:49.158Z,18.7
2023-02-02T12:39:49.390Z,18.8
2023-02-02T12:44:52.707Z,18.8
2023-02-02T12:49:53.416Z,18.9
2023-02-02T12:54:54.505Z,18.9
2023-02-02T12:59:53.957Z,18.8
2023-02-02T13:04:54.062Z,18.7
2023-02-02T13:10:01.339Z,18.7
2023-02-02T13:15:05.677Z,18.8
2023-02-02T13:20:07.852Z,18.8
2023-02-02T13:25:07.529Z,18.9
2023-02-02T13:30:07.927Z,18.9
2023-02-02T13:35:10.825Z,19
2023-02-02T13:40:10.585Z,19
2023-02-02T13:45:10.697Z,19
2023-02-02T13:50:11.006Z,18.9
2023-02-02T13:55:13.766Z,18.9
2023-02-02T14:00:13.606Z,18.8
2023-02-02T14:05:13.740Z,19
2023-02-02T14:10:14.107Z,19
2023-02-02T14:15:14.465Z,19.1
2023-02-02T14:20:14.925Z,19
2023-02-02T14:25:15.138Z,19.1
2023-02-02T14:30:15.354Z,19
2023-02-02T14:35:15.580Z,19.1
2023-02-02T14:40:15.765Z,19.1
2023-02-02T14:45:16.002Z,19.1
2023-02-02T14:55:16.432Z,19.1
2023-02-02T15:00:16.677Z,19.1
2023-02-02T15:05:16.948Z,19.1
2023-02-02T15:10:17.143Z,19.1
2023-02-02T15:15:19.931Z,19.1
2023-02-02T15:20:19.725Z,19.1
2023-02-02T15:25:22.753Z,19.1
2023-02-02T15:30:22.433Z,19.1
2023-02-02T15:35:22.655Z,19.1
2023-02-02T15:40:22.783Z,19.1
2023-02-02T15:45:23.003Z,19.1
2023-02-02T15:50:23.084Z,19
2023-02-02T15:55:24.916Z,19.1
2023-02-02T16:00:24.468Z,19.1
2023-02-02T16:05:27.573Z,19
2023-02-02T16:10:27.052Z,19.1
2023-02-02T16:15:27.591Z,19.1
2023-02-02T16:20:27.334Z,19
2023-02-02T16:25:30.237Z,19
2023-02-02T16:30:30.959Z,19
2023-02-02T16:35:30.994Z,18.9
2023-02-02T16:40:31.076Z,18.9
2023-02-02T16:45:33.885Z,18.9
2023-02-02T16:50:31.369Z,19
2023-02-02T16:55:47.745Z,19
2023-02-02T17:00:34.615Z,19
2023-02-02T17:05:34.768Z,19
2023-02-02T17:10:34.880Z,19
2023-02-02T17:15:35.662Z,18.9
2023-02-02T17:20:35.408Z,18.9
2023-02-02T17:25:35.540Z,19
2023-02-02T17:30:35.860Z,19.1
2023-02-02T17:35:51.750Z,19.1
2023-02-02T17:40:35.950Z,19.1
2023-02-02T17:45:35.960Z,18.9
2023-02-02T17:50:40.624Z,19
2023-02-02T17:55:40.348Z,19
2023-02-02T18:00:40.465Z,19
2023-02-02T18:05:43.349Z,18.9
2023-02-02T18:10:40.873Z,18.8
2023-02-02T18:15:41.882Z,18.7
2023-02-02T18:20:41.799Z,18.6
2023-02-02T18:25:42.721Z,18.6
2023-02-02T18:30:41.627Z,18.6
2023-02-02T18:35:44.489Z,18.7
2023-02-02T18:40:44.232Z,18.5
2023-02-02T18:45:44.412Z,18.6
2023-02-02T18:50:44.784Z,18.6
2023-02-02T18:55:44.678Z,18.5
2023-02-02T19:00:47.633Z,18.5
2023-02-02T19:05:47.587Z,18.5
2023-02-02T19:10:47.835Z,18.5
2023-02-02T19:15:48.102Z,18.5
2023-02-02T19:20:48.198Z,18.4
2023-02-02T19:25:51.079Z,18.3
2023-02-02T19:30:49.046Z,18.3
2023-02-02T19:35:49.471Z,18.3
2023-02-02T19:40:52.187Z,18.3
2023-02-02T19:45:51.841Z,18.2
2023-02-02T19:50:51.971Z,18.2
2023-02-02T19:55:52.236Z,18.2
2023-02-02T20:00:53.299Z,18.2
2023-02-02T20:05:53.406Z,18
2023-02-02T20:10:53.640Z,18.1
2023-02-02T20:15:55.768Z,18
2023-02-02T20:20:54.047Z,18.2
2023-02-02T20:25:54.233Z,18.2
2023-02-02T20:30:54.461Z,18.1
2023-02-02T20:35:54.934Z,18.1
2023-02-02T20:40:55.157Z,18.1
2023-02-02T20:45:55.468Z,18.1
2023-02-02T20:50:58.456Z,18.1
2023-02-02T20:55:58.209Z,18.1
2023-02-02T21:00:58.507Z,18.1
2023-02-02T21:05:58.673Z,18.1
2023-02-02T21:10:58.987Z,17.8
2023-02-02T21:15:59.103Z,18
2023-02-02T21:20:59.486Z,18.1
2023-02-02T21:25:59.549Z,17.9
2023-02-02T21:30:59.969Z,17.9
2023-02-02T21:36:00.259Z,17.9
2023-02-02T21:41:00.533Z,18
2023-02-02T21:46:03.135Z,18
2023-02-02T21:51:03.826Z,18
2023-02-02T21:56:03.645Z,18
2023-02-02T22:01:03.804Z,17.9
2023-02-02T22:06:04.954Z,18
2023-02-02T22:11:04.965Z,18
2023-02-02T22:16:05.188Z,17.9
2023-02-02T22:21:05.624Z,17.9
2023-02-02T22:26:05.813Z,18
2023-02-02T22:31:06.102Z,18
2023-02-02T22:36:06.317Z,17.9
2023-02-02T22:41:06.558Z,17.8
2023-02-02T22:46:09.693Z,17.9
2023-02-02T22:51:12.246Z,18
2023-02-02T22:56:11.965Z,17.9
2023-02-02T23:01:12.072Z,17.9
2023-02-02T23:06:12.293Z,17.9
2023-02-02T23:11:12.696Z,17.9
2023-02-02T23:16:12.855Z,17.9
2023-02-02T23:21:13.148Z,17.8
2023-02-02T23:26:13.160Z,17.9
2023-02-02T23:31:13.434Z,17.9
2023-02-02T23:36:13.739Z,17.9
2023-02-02T23:41:13.604Z,17.8
2023-02-02T23:46:13.742Z,17.7
2023-02-02T23:51:14.038Z,17.8
2023-02-02T23:56:14.295Z,17.8
